Abbott, New Mexico
Current Conditions -  °F | °C
As of 4:53 PM on Friday 28 Nov 2014 (Local Time) from KRTN Reporting Station
Clear Clear  
Wind Chill: 12°   Ceiling: Unl
Heat Index: 12°   Visibility: 10mi
Dew Point: -12°   Wind: 9mph
Humidity: 17%   Direction: 250°WSW
Pressure: 29.98"   Gusts: NA
Location:  36.3883°N, 104.381°W
Report Text: KRTN 282353Z AUTO 25008KT 10SM CLR 12/M12 A2998 RMK AO2 SLP127 T01221122 10150 20106 56006
Loading
Personal Weather Stations






























Interactive Weather Map New forecast layout! Learn more

10-Day Weather Forecast

Advertisements
Track Severe Weather on mobile